sensor_id;sensor_type;location;lat;lon;timestamp;temperature;humidity
16825;DHT22;8529;48.108;-1.706;2023-06-14T00:01:11;19.50;99.90
16825;DHT22;8529;48.108;-1.706;2023-06-14T00:03:39;19.40;99.90
16825;DHT22;8529;48.108;-1.706;2023-06-14T00:06:06;19.40;99.90
16825;DHT22;8529;48.108;-1.706;2023-06-14T00:08:33;19.40;99.90
16825;DHT22;8529;48.108;-1.706;2023-06-14T00:11:01;19.40;99.90
16825;DHT22;8529;48.108;-1.706;2023-06-14T00:13:28;19.40;99.90
16825;DHT22;8529;48.108;-1.706;2023-06-14T00:15:55;19.50;99.90
16825;DHT22;8529;48.108;-1.706;2023-06-14T00:18:22;19.50;99.90
16825;DHT22;8529;48.108;-1.706;2023-06-14T00:20:50;19.40;99.90
16825;DHT22;8529;48.108;-1.706;2023-06-14T00:23:18;19.40;99.90
16825;DHT22;8529;48.108;-1.706;2023-06-14T00:25:45;19.40;99.90
16825;DHT22;8529;48.108;-1.706;2023-06-14T00:28:13;19.40;99.90
16825;DHT22;8529;48.108;-1.706;2023-06-14T00:30:40;19.30;99.90
16825;DHT22;8529;48.108;-1.706;2023-06-14T00:33:07;19.40;99.90
16825;DHT22;8529;48.108;-1.706;2023-06-14T00:35:34;19.40;99.90
16825;DHT22;8529;48.108;-1.706;2023-06-14T00:38:01;19.40;99.90
16825;DHT22;8529;48.108;-1.706;2023-06-14T00:40:28;19.40;99.90
16825;DHT22;8529;48.108;-1.706;2023-06-14T00:42:55;19.40;99.90
16825;DHT22;8529;48.108;-1.706;2023-06-14T00:45:23;19.30;99.90
16825;DHT22;8529;48.108;-1.706;2023-06-14T00:47:51;19.30;99.90
16825;DHT22;8529;48.108;-1.706;2023-06-14T00:50:21;19.30;99.90
16825;DHT22;8529;48.108;-1.706;2023-06-14T00:52:48;19.30;99.90
16825;DHT22;8529;48.108;-1.706;2023-06-14T00:55:16;19.20;99.90
16825;DHT22;8529;48.108;-1.706;2023-06-14T00:57:43;19.20;99.90
16825;DHT22;8529;48.108;-1.706;2023-06-14T01:00:12;19.20;99.90
16825;DHT22;8529;48.108;-1.706;2023-06-14T01:02:41;19.10;99.90
16825;DHT22;8529;48.108;-1.706;2023-06-14T01:05:08;19.00;99.90
16825;DHT22;8529;48.108;-1.706;2023-06-14T01:07:51;19.00;99.90
16825;DHT22;8529;48.108;-1.706;2023-06-14T01:10:31;19.00;99.90
16825;DHT22;8529;48.108;-1.706;2023-06-14T01:13:05;19.00;99.90
16825;DHT22;8529;48.108;-1.706;2023-06-14T01:15:34;19.00;99.90
16825;DHT22;8529;48.108;-1.706;2023-06-14T01:18:03;19.10;99.90
16825;DHT22;8529;48.108;-1.706;2023-06-14T01:20:32;19.10;99.90
16825;DHT22;8529;48.108;-1.706;2023-06-14T01:23:03;19.00;99.90
16825;DHT22;8529;48.108;-1.706;2023-06-14T01:25:30;19.00;99.90
16825;DHT22;8529;48.108;-1.706;2023-06-14T01:27:59;19.00;99.90
16825;DHT22;8529;48.108;-1.706;2023-06-14T01:30:27;19.00;99.90
16825;DHT22;8529;48.108;-1.706;2023-06-14T01:32:56;19.00;99.90
16825;DHT22;8529;48.108;-1.706;2023-06-14T01:35:24;19.00;99.90
16825;DHT22;8529;48.108;-1.706;2023-06-14T01:37:51;18.90;99.90
16825;DHT22;8529;48.108;-1.706;2023-06-14T01:40:21;19.00;99.90
16825;DHT22;8529;48.108;-1.706;2023-06-14T01:42:50;19.00;99.90
16825;DHT22;8529;48.108;-1.706;2023-06-14T01:45:18;19.00;99.90
16825;DHT22;8529;48.108;-1.706;2023-06-14T01:47:47;19.00;99.90
16825;DHT22;8529;48.108;-1.706;2023-06-14T01:50:14;19.00;99.90
16825;DHT22;8529;48.108;-1.706;2023-06-14T01:52:41;19.00;99.90
16825;DHT22;8529;48.108;-1.706;2023-06-14T01:55:08;18.90;99.90
16825;DHT22;8529;48.108;-1.706;2023-06-14T01:57:37;18.90;99.90
16825;DHT22;8529;48.108;-1.706;2023-06-14T02:00:04;18.90;99.90
16825;DHT22;8529;48.108;-1.706;2023-06-14T02:02:36;18.90;99.90
16825;DHT22;8529;48.108;-1.706;2023-06-14T02:05:03;18.90;99.90
16825;DHT22;8529;48.108;-1.706;2023-06-14T02:07:30;18.90;99.90
16825;DHT22;8529;48.108;-1.706;2023-06-14T02:09:57;18.80;99.90
16825;DHT22;8529;48.108;-1.706;2023-06-14T02:12:24;18.90;99.90
16825;DHT22;8529;48.108;-1.706;2023-06-14T02:14:52;18.80;99.90
16825;DHT22;8529;48.108;-1.706;2023-06-14T02:17:19;18.80;99.90
16825;DHT22;8529;48.108;-1.706;2023-06-14T02:19:46;18.80;99.90
16825;DHT22;8529;48.108;-1.706;2023-06-14T02:22:13;18.80;99.90
16825;DHT22;8529;48.108;-1.706;2023-06-14T02:24:41;18.70;99.90
16825;DHT22;8529;48.108;-1.706;2023-06-14T02:27:08;18.70;99.90
16825;DHT22;8529;48.108;-1.706;2023-06-14T02:29:35;18.70;99.90
16825;DHT22;8529;48.108;-1.706;2023-06-14T02:32:04;18.70;99.90
16825;DHT22;8529;48.108;-1.706;2023-06-14T02:34:32;18.70;99.90
16825;DHT22;8529;48.108;-1.706;2023-06-14T02:36:59;18.70;99.90
16825;DHT22;8529;48.108;-1.706;2023-06-14T02:39:28;18.70;99.90
16825;DHT22;8529;48.108;-1.706;2023-06-14T02:41:55;18.70;99.90
16825;DHT22;8529;48.108;-1.706;2023-06-14T02:44:24;18.70;99.90
16825;DHT22;8529;48.108;-1.706;2023-06-14T02:46:52;18.60;99.90
16825;DHT22;8529;48.108;-1.706;2023-06-14T02:49:21;18.50;99.90
16825;DHT22;8529;48.108;-1.706;2023-06-14T02:51:47;18.50;99.90
16825;DHT22;8529;48.108;-1.706;2023-06-14T02:54:15;18.50;99.90
16825;DHT22;8529;48.108;-1.706;2023-06-14T02:56:42;18.40;99.90
16825;DHT22;8529;48.108;-1.706;2023-06-14T02:59:08;18.40;99.90
16825;DHT22;8529;48.108;-1.706;2023-06-14T03:01:36;18.40;99.90
16825;DHT22;8529;48.108;-1.706;2023-06-14T03:04:06;18.40;99.90
16825;DHT22;8529;48.108;-1.706;2023-06-14T03:06:34;18.40;99.90
16825;DHT22;8529;48.108;-1.706;2023-06-14T03:09:02;18.40;99.90
16825;DHT22;8529;48.108;-1.706;2023-06-14T03:11:30;18.40;99.90
16825;DHT22;8529;48.108;-1.706;2023-06-14T03:13:57;18.40;99.90
16825;DHT22;8529;48.108;-1.706;2023-06-14T03:16:24;18.40;99.90
16825;DHT22;8529;48.108;-1.706;2023-06-14T03:18:54;18.40;99.90
16825;DHT22;8529;48.108;-1.706;2023-06-14T03:21:21;18.40;99.90
16825;DHT22;8529;48.108;-1.706;2023-06-14T03:23:49;18.40;99.90
16825;DHT22;8529;48.108;-1.706;2023-06-14T03:26:16;18.40;99.90
16825;DHT22;8529;48.108;-1.706;2023-06-14T03:28:44;18.40;99.90
16825;DHT22;8529;48.108;-1.706;2023-06-14T03:31:11;18.40;99.90
16825;DHT22;8529;48.108;-1.706;2023-06-14T03:33:38;18.30;99.90
16825;DHT22;8529;48.108;-1.706;2023-06-14T03:36:06;18.30;99.90
16825;DHT22;8529;48.108;-1.706;2023-06-14T03:38:33;18.40;99.90
16825;DHT22;8529;48.108;-1.706;2023-06-14T03:41:01;18.40;99.90
16825;DHT22;8529;48.108;-1.706;2023-06-14T03:43:28;18.30;99.90
16825;DHT22;8529;48.108;-1.706;2023-06-14T03:45:56;18.30;99.90
16825;DHT22;8529;48.108;-1.706;2023-06-14T03:48:23;18.20;99.90
16825;DHT22;8529;48.108;-1.706;2023-06-14T03:50:50;18.20;99.90
16825;DHT22;8529;48.108;-1.706;2023-06-14T03:53:17;18.20;99.90
16825;DHT22;8529;48.108;-1.706;2023-06-14T03:55:46;18.20;99.90
16825;DHT22;8529;48.108;-1.706;2023-06-14T03:58:15;18.20;99.90
16825;DHT22;8529;48.108;-1.706;2023-06-14T04:00:42;18.20;99.90
16825;DHT22;8529;48.108;-1.706;2023-06-14T04:03:10;18.20;99.90
16825;DHT22;8529;48.108;-1.706;2023-06-14T04:05:38;18.20;99.90
16825;DHT22;8529;48.108;-1.706;2023-06-14T04:08:07;18.10;99.90
16825;DHT22;8529;48.108;-1.706;2023-06-14T04:10:34;18.10;99.90
16825;DHT22;8529;48.108;-1.706;2023-06-14T04:13:01;18.20;99.90
16825;DHT22;8529;48.108;-1.706;2023-06-14T04:15:29;18.10;99.90
16825;DHT22;8529;48.108;-1.706;2023-06-14T04:17:56;18.10;99.90
16825;DHT22;8529;48.108;-1.706;2023-06-14T04:20:23;18.10;99.90
16825;DHT22;8529;48.108;-1.706;2023-06-14T04:22:51;18.10;99.90
16825;DHT22;8529;48.108;-1.706;2023-06-14T04:25:18;18.20;99.90
16825;DHT22;8529;48.108;-1.706;2023-06-14T04:27:46;18.10;99.90
16825;DHT22;8529;48.108;-1.706;2023-06-14T04:30:13;18.20;99.90
16825;DHT22;8529;48.108;-1.706;2023-06-14T04:32:41;18.20;99.90
16825;DHT22;8529;48.108;-1.706;2023-06-14T04:35:09;18.20;99.90
16825;DHT22;8529;48.108;-1.706;2023-06-14T04:37:36;18.20;99.90
16825;DHT22;8529;48.108;-1.706;2023-06-14T04:40:06;18.20;99.90
16825;DHT22;8529;48.108;-1.706;2023-06-14T04:42:34;18.20;99.90
16825;DHT22;8529;48.108;-1.706;2023-06-14T04:45:02;18.20;99.90
16825;DHT22;8529;48.108;-1.706;2023-06-14T04:47:30;18.20;99.90
16825;DHT22;8529;48.108;-1.706;2023-06-14T04:49:59;18.20;99.90
16825;DHT22;8529;48.108;-1.706;2023-06-14T04:52:26;18.30;99.90
16825;DHT22;8529;48.108;-1.706;2023-06-14T04:54:55;18.30;99.90
16825;DHT22;8529;48.108;-1.706;2023-06-14T04:57:22;18.30;99.90
16825;DHT22;8529;48.108;-1.706;2023-06-14T04:59:50;18.20;99.90
16825;DHT22;8529;48.108;-1.706;2023-06-14T05:02:20;18.20;99.90
16825;DHT22;8529;48.108;-1.706;2023-06-14T05:04:47;18.20;99.90
16825;DHT22;8529;48.108;-1.706;2023-06-14T05:07:16;18.30;99.90
16825;DHT22;8529;48.108;-1.706;2023-06-14T05:09:43;18.30;99.90
16825;DHT22;8529;48.108;-1.706;2023-06-14T05:12:10;18.30;99.90
16825;DHT22;8529;48.108;-1.706;2023-06-14T05:14:37;18.30;99.90
16825;DHT22;8529;48.108;-1.706;2023-06-14T05:17:05;18.30;99.90
16825;DHT22;8529;48.108;-1.706;2023-06-14T05:19:32;18.30;99.90
16825;DHT22;8529;48.108;-1.706;2023-06-14T05:21:59;18.30;99.90
16825;DHT22;8529;48.108;-1.706;2023-06-14T05:24:27;18.40;99.90
16825;DHT22;8529;48.108;-1.706;2023-06-14T05:26:56;18.40;99.90
16825;DHT22;8529;48.108;-1.706;2023-06-14T05:29:22;18.30;99.90
16825;DHT22;8529;48.108;-1.706;2023-06-14T05:31:49;18.40;99.90
16825;DHT22;8529;48.108;-1.706;2023-06-14T05:34:16;18.40;99.90
16825;DHT22;8529;48.108;-1.706;2023-06-14T05:36:43;18.40;99.90
16825;DHT22;8529;48.108;-1.706;2023-06-14T05:39:10;18.40;99.90
16825;DHT22;8529;48.108;-1.706;2023-06-14T05:41:38;18.40;99.90
16825;DHT22;8529;48.108;-1.706;2023-06-14T05:44:05;18.40;99.90
16825;DHT22;8529;48.108;-1.706;2023-06-14T05:46:33;18.40;99.90
16825;DHT22;8529;48.108;-1.706;2023-06-14T05:49:00;18.40;99.90
16825;DHT22;8529;48.108;-1.706;2023-06-14T05:51:27;18.40;99.90
16825;DHT22;8529;48.108;-1.706;2023-06-14T05:53:54;18.40;99.90
16825;DHT22;8529;48.108;-1.706;2023-06-14T05:56:21;18.40;99.90
16825;DHT22;8529;48.108;-1.706;2023-06-14T05:58:50;18.50;99.90
16825;DHT22;8529;48.108;-1.706;2023-06-14T06:01:17;18.60;99.90
16825;DHT22;8529;48.108;-1.706;2023-06-14T06:03:43;18.60;99.90
16825;DHT22;8529;48.108;-1.706;2023-06-14T06:06:12;18.60;99.90
16825;DHT22;8529;48.108;-1.706;2023-06-14T06:08:39;18.60;99.90
16825;DHT22;8529;48.108;-1.706;2023-06-14T06:11:06;18.70;99.90
16825;DHT22;8529;48.108;-1.706;2023-06-14T06:13:33;18.70;99.90
16825;DHT22;8529;48.108;-1.706;2023-06-14T06:16:02;18.80;99.90
16825;DHT22;8529;48.108;-1.706;2023-06-14T06:18:29;18.90;99.90
16825;DHT22;8529;48.108;-1.706;2023-06-14T06:20:56;18.80;99.90
16825;DHT22;8529;48.108;-1.706;2023-06-14T06:23:22;18.90;99.90
16825;DHT22;8529;48.108;-1.706;2023-06-14T06:25:50;18.90;99.90
16825;DHT22;8529;48.108;-1.706;2023-06-14T06:28:17;19.00;99.90
16825;DHT22;8529;48.108;-1.706;2023-06-14T06:30:44;19.10;99.90
16825;DHT22;8529;48.108;-1.706;2023-06-14T06:33:12;19.10;99.90
16825;DHT22;8529;48.108;-1.706;2023-06-14T06:35:39;19.10;99.90
16825;DHT22;8529;48.108;-1.706;2023-06-14T06:38:06;19.10;99.90
16825;DHT22;8529;48.108;-1.706;2023-06-14T06:40:34;19.10;99.90
16825;DHT22;8529;48.108;-1.706;2023-06-14T06:43:02;19.20;99.90
16825;DHT22;8529;48.108;-1.706;2023-06-14T06:45:29;19.20;99.90
16825;DHT22;8529;48.108;-1.706;2023-06-14T06:47:56;19.20;99.90
16825;DHT22;8529;48.108;-1.706;2023-06-14T06:50:24;19.30;99.90
16825;DHT22;8529;48.108;-1.706;2023-06-14T06:52:51;19.30;99.90
16825;DHT22;8529;48.108;-1.706;2023-06-14T06:55:18;19.40;99.90
16825;DHT22;8529;48.108;-1.706;2023-06-14T06:57:45;19.40;99.90
16825;DHT22;8529;48.108;-1.706;2023-06-14T07:00:13;19.50;99.90
16825;DHT22;8529;48.108;-1.706;2023-06-14T07:02:39;19.50;99.90
16825;DHT22;8529;48.108;-1.706;2023-06-14T07:05:06;19.50;99.90
16825;DHT22;8529;48.108;-1.706;2023-06-14T07:07:35;19.60;99.90
16825;DHT22;8529;48.108;-1.706;2023-06-14T07:10:02;19.60;99.90
16825;DHT22;8529;48.108;-1.706;2023-06-14T07:12:30;19.60;99.90
16825;DHT22;8529;48.108;-1.706;2023-06-14T07:14:59;19.70;99.90
16825;DHT22;8529;48.108;-1.706;2023-06-14T07:17:26;19.70;99.90
16825;DHT22;8529;48.108;-1.706;2023-06-14T07:19:53;19.80;99.90
16825;DHT22;8529;48.108;-1.706;2023-06-14T07:22:20;19.80;99.90
16825;DHT22;8529;48.108;-1.706;2023-06-14T07:24:48;19.80;99.90
16825;DHT22;8529;48.108;-1.706;2023-06-14T07:27:15;19.80;99.90
16825;DHT22;8529;48.108;-1.706;2023-06-14T07:29:42;19.90;99.90
16825;DHT22;8529;48.108;-1.706;2023-06-14T07:32:09;19.90;99.90
16825;DHT22;8529;48.108;-1.706;2023-06-14T07:34:36;20.00;99.90
16825;DHT22;8529;48.108;-1.706;2023-06-14T07:37:03;20.00;99.90
16825;DHT22;8529;48.108;-1.706;2023-06-14T07:39:30;20.10;99.90
16825;DHT22;8529;48.108;-1.706;2023-06-14T07:41:58;20.10;99.90
16825;DHT22;8529;48.108;-1.706;2023-06-14T07:44:27;20.20;99.90
16825;DHT22;8529;48.108;-1.706;2023-06-14T07:46:54;20.20;99.90
16825;DHT22;8529;48.108;-1.706;2023-06-14T07:49:23;20.20;99.90
16825;DHT22;8529;48.108;-1.706;2023-06-14T07:51:50;20.30;99.90
16825;DHT22;8529;48.108;-1.706;2023-06-14T07:54:19;20.30;99.90
16825;DHT22;8529;48.108;-1.706;2023-06-14T07:56:50;20.40;99.90
16825;DHT22;8529;48.108;-1.706;2023-06-14T07:59:18;20.40;99.90
16825;DHT22;8529;48.108;-1.706;2023-06-14T08:01:45;20.50;99.90
16825;DHT22;8529;48.108;-1.706;2023-06-14T08:04:13;20.50;99.90
16825;DHT22;8529;48.108;-1.706;2023-06-14T08:06:40;20.50;99.90
16825;DHT22;8529;48.108;-1.706;2023-06-14T08:09:09;20.60;99.90
16825;DHT22;8529;48.108;-1.706;2023-06-14T08:11:36;20.60;99.90
16825;DHT22;8529;48.108;-1.706;2023-06-14T08:14:03;20.70;99.90
16825;DHT22;8529;48.108;-1.706;2023-06-14T08:16:32;20.70;99.90
16825;DHT22;8529;48.108;-1.706;2023-06-14T08:18:59;20.80;99.90
16825;DHT22;8529;48.108;-1.706;2023-06-14T08:21:26;20.80;99.90
16825;DHT22;8529;48.108;-1.706;2023-06-14T08:23:54;20.80;99.90
16825;DHT22;8529;48.108;-1.706;2023-06-14T08:26:21;20.90;99.90
16825;DHT22;8529;48.108;-1.706;2023-06-14T08:28:48;20.80;99.90
16825;DHT22;8529;48.108;-1.706;2023-06-14T08:31:15;20.90;99.90
16825;DHT22;8529;48.108;-1.706;2023-06-14T08:33:44;21.00;99.90
16825;DHT22;8529;48.108;-1.706;2023-06-14T08:36:11;21.00;99.90
16825;DHT22;8529;48.108;-1.706;2023-06-14T08:38:38;21.00;99.90
16825;DHT22;8529;48.108;-1.706;2023-06-14T08:41:06;21.00;99.90
16825;DHT22;8529;48.108;-1.706;2023-06-14T08:43:33;21.10;99.90
16825;DHT22;8529;48.108;-1.706;2023-06-14T08:46:02;21.10;99.90
16825;DHT22;8529;48.108;-1.706;2023-06-14T08:48:30;21.20;99.90
16825;DHT22;8529;48.108;-1.706;2023-06-14T08:51:00;21.20;99.90
16825;DHT22;8529;48.108;-1.706;2023-06-14T08:53:30;21.20;99.90
16825;DHT22;8529;48.108;-1.706;2023-06-14T08:55:57;21.30;99.90
16825;DHT22;8529;48.108;-1.706;2023-06-14T08:58:27;21.30;99.90
16825;DHT22;8529;48.108;-1.706;2023-06-14T09:00:55;21.30;99.90
16825;DHT22;8529;48.108;-1.706;2023-06-14T09:03:23;21.40;99.90
16825;DHT22;8529;48.108;-1.706;2023-06-14T09:05:56;21.40;99.90
16825;DHT22;8529;48.108;-1.706;2023-06-14T09:08:26;21.40;99.90
16825;DHT22;8529;48.108;-1.706;2023-06-14T09:10:56;21.50;99.90
16825;DHT22;8529;48.108;-1.706;2023-06-14T09:13:23;21.70;99.90
16825;DHT22;8529;48.108;-1.706;2023-06-14T09:15:50;21.80;99.90
16825;DHT22;8529;48.108;-1.706;2023-06-14T09:18:18;21.90;99.90
16825;DHT22;8529;48.108;-1.706;2023-06-14T09:20:46;22.00;99.90
16825;DHT22;8529;48.108;-1.706;2023-06-14T09:23:14;22.10;99.90
16825;DHT22;8529;48.108;-1.706;2023-06-14T09:25:48;22.30;99.90
16825;DHT22;8529;48.108;-1.706;2023-06-14T09:28:15;22.40;99.90
16825;DHT22;8529;48.108;-1.706;2023-06-14T09:30:42;22.50;99.90
16825;DHT22;8529;48.108;-1.706;2023-06-14T09:33:09;22.60;99.90
16825;DHT22;8529;48.108;-1.706;2023-06-14T09:35:36;22.90;99.90
16825;DHT22;8529;48.108;-1.706;2023-06-14T09:38:03;23.10;99.90
16825;DHT22;8529;48.108;-1.706;2023-06-14T09:40:34;23.30;99.90
16825;DHT22;8529;48.108;-1.706;2023-06-14T09:43:05;23.40;99.90
16825;DHT22;8529;48.108;-1.706;2023-06-14T09:45:33;23.50;99.90
16825;DHT22;8529;48.108;-1.706;2023-06-14T09:48:01;23.50;99.90
16825;DHT22;8529;48.108;-1.706;2023-06-14T09:50:28;23.50;99.90
16825;DHT22;8529;48.108;-1.706;2023-06-14T09:53:00;23.30;99.90
16825;DHT22;8529;48.108;-1.706;2023-06-14T09:55:31;23.30;99.90
16825;DHT22;8529;48.108;-1.706;2023-06-14T09:58:01;23.20;99.90
16825;DHT22;8529;48.108;-1.706;2023-06-14T10:00:32;23.10;99.90
16825;DHT22;8529;48.108;-1.706;2023-06-14T10:03:03;23.10;99.90
16825;DHT22;8529;48.108;-1.706;2023-06-14T10:05:31;23.20;99.90
16825;DHT22;8529;48.108;-1.706;2023-06-14T10:08:00;23.30;99.90
16825;DHT22;8529;48.108;-1.706;2023-06-14T10:10:31;23.40;99.90
16825;DHT22;8529;48.108;-1.706;2023-06-14T10:12:58;23.40;99.90
16825;DHT22;8529;48.108;-1.706;2023-06-14T10:15:30;23.50;99.90
16825;DHT22;8529;48.108;-1.706;2023-06-14T10:18:07;23.50;99.90
16825;DHT22;8529;48.108;-1.706;2023-06-14T10:20:42;23.60;99.90
16825;DHT22;8529;48.108;-1.706;2023-06-14T10:23:19;23.80;99.90
16825;DHT22;8529;48.108;-1.706;2023-06-14T10:25:50;24.00;99.90
16825;DHT22;8529;48.108;-1.706;2023-06-14T10:28:18;24.30;99.90
16825;DHT22;8529;48.108;-1.706;2023-06-14T10:31:04;24.20;99.90
16825;DHT22;8529;48.108;-1.706;2023-06-14T10:33:34;24.30;99.90
16825;DHT22;8529;48.108;-1.706;2023-06-14T10:36:25;24.20;99.90
16825;DHT22;8529;48.108;-1.706;2023-06-14T10:39:00;24.40;99.90
16825;DHT22;8529;48.108;-1.706;2023-06-14T10:41:28;24.40;99.90
16825;DHT22;8529;48.108;-1.706;2023-06-14T10:47:25;24.50;99.90
16825;DHT22;8529;48.108;-1.706;2023-06-14T10:49:54;24.60;99.90
16825;DHT22;8529;48.108;-1.706;2023-06-14T10:52:24;24.60;99.90
16825;DHT22;8529;48.108;-1.706;2023-06-14T10:55:01;24.60;99.90
16825;DHT22;8529;48.108;-1.706;2023-06-14T10:57:29;24.40;99.90
16825;DHT22;8529;48.108;-1.706;2023-06-14T10:59:58;24.70;99.90
16825;DHT22;8529;48.108;-1.706;2023-06-14T11:05:27;24.60;99.90
16825;DHT22;8529;48.108;-1.706;2023-06-14T11:08:18;24.40;99.90
16825;DHT22;8529;48.108;-1.706;2023-06-14T11:10:47;24.20;99.90
16825;DHT22;8529;48.108;-1.706;2023-06-14T11:13:16;24.10;99.90
16825;DHT22;8529;48.108;-1.706;2023-06-14T11:15:45;24.10;99.90
16825;DHT22;8529;48.108;-1.706;2023-06-14T11:18:12;24.10;99.90
16825;DHT22;8529;48.108;-1.706;2023-06-14T11:20:41;24.00;99.90
16825;DHT22;8529;48.108;-1.706;2023-06-14T11:23:08;24.00;99.90
16825;DHT22;8529;48.108;-1.706;2023-06-14T11:25:35;24.20;99.90
16825;DHT22;8529;48.108;-1.706;2023-06-14T11:28:02;24.40;99.90
16825;DHT22;8529;48.108;-1.706;2023-06-14T11:30:29;24.40;99.90
16825;DHT22;8529;48.108;-1.706;2023-06-14T11:32:57;24.40;99.90
16825;DHT22;8529;48.108;-1.706;2023-06-14T11:35:24;24.40;99.90
16825;DHT22;8529;48.108;-1.706;2023-06-14T11:37:54;24.30;99.90
16825;DHT22;8529;48.108;-1.706;2023-06-14T11:40:24;24.30;99.90
16825;DHT22;8529;48.108;-1.706;2023-06-14T11:42:58;24.40;99.90
16825;DHT22;8529;48.108;-1.706;2023-06-14T11:45:26;24.40;99.90
16825;DHT22;8529;48.108;-1.706;2023-06-14T11:47:55;24.50;99.90
16825;DHT22;8529;48.108;-1.706;2023-06-14T11:50:23;24.60;99.90
16825;DHT22;8529;48.108;-1.706;2023-06-14T11:52:54;24.70;99.90
16825;DHT22;8529;48.108;-1.706;2023-06-14T11:55:21;24.70;99.90
16825;DHT22;8529;48.108;-1.706;2023-06-14T11:57:48;24.80;99.90
16825;DHT22;8529;48.108;-1.706;2023-06-14T12:00:16;24.90;99.90
16825;DHT22;8529;48.108;-1.706;2023-06-14T12:02:52;24.80;99.90
16825;DHT22;8529;48.108;-1.706;2023-06-14T12:05:21;24.80;99.90
16825;DHT22;8529;48.108;-1.706;2023-06-14T12:07:49;24.80;99.90
16825;DHT22;8529;48.108;-1.706;2023-06-14T12:10:20;24.80;99.90
16825;DHT22;8529;48.108;-1.706;2023-06-14T12:12:47;24.80;99.90
16825;DHT22;8529;48.108;-1.706;2023-06-14T12:15:14;24.70;99.90
16825;DHT22;8529;48.108;-1.706;2023-06-14T12:17:42;24.70;99.90
16825;DHT22;8529;48.108;-1.706;2023-06-14T12:20:10;24.70;99.90
16825;DHT22;8529;48.108;-1.706;2023-06-14T12:22:39;24.70;99.90
16825;DHT22;8529;48.108;-1.706;2023-06-14T12:25:08;24.70;99.90
16825;DHT22;8529;48.108;-1.706;2023-06-14T12:27:41;24.70;99.90
16825;DHT22;8529;48.108;-1.706;2023-06-14T12:30:09;24.70;99.90
16825;DHT22;8529;48.108;-1.706;2023-06-14T12:32:36;24.70;99.90
16825;DHT22;8529;48.108;-1.706;2023-06-14T12:35:03;24.70;99.90
16825;DHT22;8529;48.108;-1.706;2023-06-14T12:37:30;24.80;99.90
16825;DHT22;8529;48.108;-1.706;2023-06-14T12:39:57;24.90;99.90
16825;DHT22;8529;48.108;-1.706;2023-06-14T12:42:25;24.80;99.90
16825;DHT22;8529;48.108;-1.706;2023-06-14T12:44:53;24.60;99.90
16825;DHT22;8529;48.108;-1.706;2023-06-14T12:47:20;24.60;99.90
16825;DHT22;8529;48.108;-1.706;2023-06-14T12:49:47;24.60;99.90
16825;DHT22;8529;48.108;-1.706;2023-06-14T12:52:14;24.60;99.90
16825;DHT22;8529;48.108;-1.706;2023-06-14T12:54:41;24.70;99.90
16825;DHT22;8529;48.108;-1.706;2023-06-14T12:57:08;24.80;99.90
16825;DHT22;8529;48.108;-1.706;2023-06-14T12:59:35;25.00;99.90
16825;DHT22;8529;48.108;-1.706;2023-06-14T13:02:15;25.20;99.90
16825;DHT22;8529;48.108;-1.706;2023-06-14T13:04:43;25.30;99.90
16825;DHT22;8529;48.108;-1.706;2023-06-14T13:07:10;25.30;99.90
16825;DHT22;8529;48.108;-1.706;2023-06-14T13:09:37;25.20;99.90
16825;DHT22;8529;48.108;-1.706;2023-06-14T13:12:05;25.20;99.90
16825;DHT22;8529;48.108;-1.706;2023-06-14T13:14:32;25.20;99.90
16825;DHT22;8529;48.108;-1.706;2023-06-14T13:16:59;25.20;99.90
16825;DHT22;8529;48.108;-1.706;2023-06-14T13:19:27;25.30;99.90
16825;DHT22;8529;48.108;-1.706;2023-06-14T13:21:54;25.40;99.90
16825;DHT22;8529;48.108;-1.706;2023-06-14T13:24:21;25.50;99.90
16825;DHT22;8529;48.108;-1.706;2023-06-14T13:26:48;25.40;99.90
16825;DHT22;8529;48.108;-1.706;2023-06-14T13:29:15;25.30;99.90
16825;DHT22;8529;48.108;-1.706;2023-06-14T13:31:41;25.20;99.90
16825;DHT22;8529;48.108;-1.706;2023-06-14T13:34:08;25.00;99.90
16825;DHT22;8529;48.108;-1.706;2023-06-14T13:36:37;24.90;99.90
16825;DHT22;8529;48.108;-1.706;2023-06-14T13:39:03;25.00;99.90
16825;DHT22;8529;48.108;-1.706;2023-06-14T13:41:31;25.10;99.90
16825;DHT22;8529;48.108;-1.706;2023-06-14T13:44:00;25.10;99.90
16825;DHT22;8529;48.108;-1.706;2023-06-14T13:46:29;25.10;99.90
16825;DHT22;8529;48.108;-1.706;2023-06-14T13:48:56;25.00;99.90
16825;DHT22;8529;48.108;-1.706;2023-06-14T13:51:23;25.10;99.90
16825;DHT22;8529;48.108;-1.706;2023-06-14T13:53:53;25.10;99.90
16825;DHT22;8529;48.108;-1.706;2023-06-14T13:56:21;25.20;99.90
16825;DHT22;8529;48.108;-1.706;2023-06-14T13:58:49;25.20;99.90
16825;DHT22;8529;48.108;-1.706;2023-06-14T14:01:16;25.20;99.90
16825;DHT22;8529;48.108;-1.706;2023-06-14T14:03:45;25.30;99.90
16825;DHT22;8529;48.108;-1.706;2023-06-14T14:06:13;25.50;99.90
16825;DHT22;8529;48.108;-1.706;2023-06-14T14:08:40;25.50;99.70
16825;DHT22;8529;48.108;-1.706;2023-06-14T14:11:08;25.60;99.40
16825;DHT22;8529;48.108;-1.706;2023-06-14T14:13:35;25.60;99.90
16825;DHT22;8529;48.108;-1.706;2023-06-14T14:16:04;25.50;99.90
16825;DHT22;8529;48.108;-1.706;2023-06-14T14:18:31;25.40;99.90
16825;DHT22;8529;48.108;-1.706;2023-06-14T14:20:59;25.30;99.90
16825;DHT22;8529;48.108;-1.706;2023-06-14T14:23:27;25.50;98.70
16825;DHT22;8529;48.108;-1.706;2023-06-14T14:25:55;25.60;99.50
16825;DHT22;8529;48.108;-1.706;2023-06-14T14:28:23;25.60;99.50
16825;DHT22;8529;48.108;-1.706;2023-06-14T14:30:51;25.50;99.90
16825;DHT22;8529;48.108;-1.706;2023-06-14T14:33:19;25.50;99.00
16825;DHT22;8529;48.108;-1.706;2023-06-14T14:35:46;25.60;98.50
16825;DHT22;8529;48.108;-1.706;2023-06-14T14:38:13;25.70;98.50
16825;DHT22;8529;48.108;-1.706;2023-06-14T14:40:41;25.60;99.40
16825;DHT22;8529;48.108;-1.706;2023-06-14T14:43:08;25.60;99.90
16825;DHT22;8529;48.108;-1.706;2023-06-14T14:45:36;25.50;99.90
16825;DHT22;8529;48.108;-1.706;2023-06-14T14:48:04;25.50;99.90
16825;DHT22;8529;48.108;-1.706;2023-06-14T14:50:31;25.50;99.90
16825;DHT22;8529;48.108;-1.706;2023-06-14T14:52:57;25.50;99.70
16825;DHT22;8529;48.108;-1.706;2023-06-14T14:55:24;25.40;99.90
16825;DHT22;8529;48.108;-1.706;2023-06-14T14:57:51;25.40;99.90
16825;DHT22;8529;48.108;-1.706;2023-06-14T15:00:18;25.40;99.90
16825;DHT22;8529;48.108;-1.706;2023-06-14T15:02:47;25.40;99.90
16825;DHT22;8529;48.108;-1.706;2023-06-14T15:05:14;25.40;99.20
16825;DHT22;8529;48.108;-1.706;2023-06-14T15:07:41;25.40;99.50
16825;DHT22;8529;48.108;-1.706;2023-06-14T15:10:08;25.40;99.20
16825;DHT22;8529;48.108;-1.706;2023-06-14T15:12:35;25.40;98.70
16825;DHT22;8529;48.108;-1.706;2023-06-14T15:15:03;25.50;99.00
16825;DHT22;8529;48.108;-1.706;2023-06-14T15:17:30;25.50;99.00
16825;DHT22;8529;48.108;-1.706;2023-06-14T15:19:58;25.50;98.90
16825;DHT22;8529;48.108;-1.706;2023-06-14T15:22:25;25.60;98.60
16825;DHT22;8529;48.108;-1.706;2023-06-14T15:24:52;25.70;98.40
16825;DHT22;8529;48.108;-1.706;2023-06-14T15:27:19;25.70;98.40
16825;DHT22;8529;48.108;-1.706;2023-06-14T15:29:46;25.70;97.90
16825;DHT22;8529;48.108;-1.706;2023-06-14T15:32:13;25.70;98.70
16825;DHT22;8529;48.108;-1.706;2023-06-14T15:34:40;25.70;98.60
16825;DHT22;8529;48.108;-1.706;2023-06-14T15:37:08;25.70;97.70
16825;DHT22;8529;48.108;-1.706;2023-06-14T15:39:35;25.80;97.60
16825;DHT22;8529;48.108;-1.706;2023-06-14T15:42:03;25.80;98.00